Aviation Digital Data Service (ADDS)

Output produced by METARs form (1809 UTC 14 August 2018)
found at http://www.aviationweather.gov/adds/metars/
 
FQBR 141800Z 07003KT CAVOK 22/21 Q1020
TAF FQBR 141600Z 1418/1524 09010KT CAVOK 
     BECMG 1502/1504 VRB03KT 
     BECMG 1506/1508 01008KT 
     BECMG 1512/1514 08012KT TX28/1513Z TN18/1503Z
       
FQCH 141800Z 09010KT CAVOK 22/12 Q1025
TAF FQCH 141600Z 1418/1518 05007KT 9999 FEW020 
     BECMG 1500/1502 VRB02KT 
     BECMG 1506/1508 32006KT 
     BECMG 1510/1512 07012KT TX29/1513Z TN13/1503Z
       
FQIN 141800Z 09004KT CAVOK 23/22 Q1022
TAF FQIN 141600Z 1418/1518 34008KT 9999 SCT020 
     BECMG 1510/1512 05012KT TX32/1513Z TN20/1503Z
       
FQLC 141800Z 09007KT CAVOK 16/07 Q1026
TAF FQLC 141600Z 1418/1518 10008KT CAVOK 
     BECMG 1500/1502 VRB02KT 
     BECMG 1506/1508 03007KT 9999 FEW020 
     BECMG 1512/1514 10012KT TX25/1512Z TN17/1503Z
       
FQMA 141800Z 18004KT 9999 BKN020 22/19 Q1018 NOSIG
TAF FQMA 141600Z 1418/1524 12013KT 9999 BKN020 
     BECMG 1421/1423 19008KT 
     BECMG 1504/1506 VRB03KT 
     BECMG 1510/1512 04012KT FEW020 TX32/1513Z TN17/1503Z
       
FQNC 141400Z 10009KT 9999 SCT020 26/18 Q1020
TAF FQNC 141600Z 1418/1518 09008KT CAVOK 
     BECMG 1500/1502 VRB02KT 
     BECMG 1506/1508 16008KT 
     BECMG 1512/1514 10012KT TX29/1513Z TN17/1503Z
       
FQNP 141800Z 09010KT CAVOK 22/19 Q1023
TAF FQNP 141600Z 1418/1524 09008KT CAVOK 
     BECMG 1500/1502 VRB02KT 
     BECMG 1506/1508 16008KT 
     BECMG 1512/1514 08012KT TX30/1513Z TN17/1503Z
       
FQPB 141800Z 12009KT 9999 FEW020 24/19 Q1022
TAF FQPB 141600Z 1418/1518 11010KT 9999 FEW020 
     BECMG 1500/1502 VRB02KT 
     BECMG 1506/1508 19008KT 
     BECMG 1512/1514 13012KT TX29/1513Z TN18/1503Z
       
FQQL 141800Z 11003KT CAVOK 23/20 Q1020
TAF FQQL 141600Z 1418/1518 11010KT CAVOK 
     BECMG 1500/1502 VRB03KT 
     PROB30 
     TEMPO 1500/1506 3000 BR NSC 
     BECMG 1506/1508 03008KT 9999 FEW025 
     BECMG 1512/1514 09012KT TX32/1513Z TN19/1503Z
       
FQTT 141700Z 00000KT CAVOK 29/08 Q1018
TAF FQTT 141600Z 1418/1518 VRB03KT CAVOK 
     BECMG 1508/1510 17008KT 
     BECMG 1512/1514 12012KT TX34/1513Z TN18/1503Z
       
FQVL 141700Z 07004KT CAVOK 24/20 Q1020
TAF FQVL 141600Z 1418/1518 35008KT 9999 SCT020 
     BECMG 1510/1512 06012KT TX29/1513Z TN17/1503Z